Time;durP1;ratioP1;P1;durP2;ratioP2;P2;SDS_P1;SDS_P2;PMS_P1;PMS_P2;Temp;Humidity;BMP_temperature;BMP_pressure;BME280_temperature;BME280_humidity;BME280_pressure;Samples;Min_cycle;Max_cycle;Signal;HPM_P1;HPM_P2
2023/07/13 00:01:12;;;;;;;3.83;1.25;;;20.70;99.90;;;;;;5091195;28;20034;-66
2023/07/13 00:03:40;;;;;;;3.67;1.30;;;20.70;99.90;;;;;;5090910;28;20035;-66
2023/07/13 00:06:07;;;;;;;4.38;1.40;;;20.60;99.90;;;;;;5090767;28;20398;-66
2023/07/13 00:08:34;;;;;;;4.10;1.30;;;20.60;99.90;;;;;;5090843;28;20066;-66
2023/07/13 00:11:03;;;;;;;3.05;1.20;;;20.50;99.90;;;;;;5090549;28;20024;-66
2023/07/13 00:13:30;;;;;;;3.83;1.23;;;20.60;99.90;;;;;;5090755;28;20039;-65
2023/07/13 00:15:57;;;;;;;4.90;1.50;;;20.60;99.90;;;;;;5090560;28;20039;-66
2023/07/13 00:18:23;;;;;;;3.63;1.23;;;20.50;99.90;;;;;;5090930;28;20027;-65
2023/07/13 00:20:49;;;;;;;5.30;1.40;;;20.60;99.90;;;;;;5090632;28;20032;-65
2023/07/13 00:23:16;;;;;;;5.70;1.40;;;20.90;99.90;;;;;;5090417;28;20047;-66
2023/07/13 00:25:42;;;;;;;4.82;1.48;;;21.00;99.90;;;;;;5092838;28;20562;-65
2023/07/13 00:28:08;;;;;;;3.70;1.50;;;21.10;99.90;;;;;;5093978;28;20016;-65
2023/07/13 00:30:34;;;;;;;4.18;1.50;;;21.20;99.90;;;;;;5094118;28;20024;-66
2023/07/13 00:33:01;;;;;;;4.40;1.40;;;21.20;99.90;;;;;;5094071;28;20039;-65
2023/07/13 00:35:30;;;;;;;4.90;1.40;;;21.20;99.90;;;;;;5093916;28;20027;-65
2023/07/13 00:37:56;;;;;;;5.47;1.58;;;21.20;99.90;;;;;;5094170;28;20570;-66
2023/07/13 00:40:21;;;;;;;3.72;1.52;;;21.20;99.90;;;;;;5093960;28;20030;-65
2023/07/13 00:42:47;;;;;;;5.35;1.60;;;21.20;99.90;;;;;;5093559;28;20111;-65
2023/07/13 00:45:13;;;;;;;4.90;1.52;;;21.10;99.90;;;;;;5093790;28;20440;-66
2023/07/13 00:47:43;;;;;;;5.82;1.40;;;21.10;99.90;;;;;;5093768;28;20598;-66
2023/07/13 00:50:13;;;;;;;6.20;1.50;;;21.10;99.90;;;;;;5093821;28;20402;-66
2023/07/13 00:52:43;;;;;;;4.88;1.60;;;21.10;99.90;;;;;;5093600;28;20055;-66
2023/07/13 00:55:10;;;;;;;5.28;1.58;;;21.00;99.90;;;;;;5093729;28;20036;-66
2023/07/13 00:57:36;;;;;;;4.85;1.60;;;20.80;99.90;;;;;;5093201;28;20036;-66
2023/07/13 01:00:09;;;;;;;3.92;1.45;;;20.70;99.90;;;;;;5093454;28;20426;-66
2023/07/13 01:02:39;;;;;;;5.43;1.63;;;20.60;99.90;;;;;;5093884;28;20020;-66
2023/07/13 01:05:14;;;;;;;4.63;1.67;;;20.50;99.90;;;;;;5093508;28;20387;-66
2023/07/13 01:07:41;;;;;;;4.10;1.40;;;20.50;99.90;;;;;;5093573;28;20039;-65
2023/07/13 01:10:08;;;;;;;3.42;1.40;;;20.50;99.90;;;;;;5093038;28;20059;-66
2023/07/13 01:12:34;;;;;;;4.47;1.40;;;20.50;99.90;;;;;;5093018;28;20041;-66
2023/07/13 01:15:01;;;;;;;4.57;1.48;;;20.50;99.90;;;;;;5093305;28;20028;-66
2023/07/13 01:17:28;;;;;;;4.53;1.40;;;20.50;99.90;;;;;;5093116;28;20059;-66
2023/07/13 01:19:54;;;;;;;4.82;1.50;;;20.40;99.90;;;;;;5093515;28;20111;-66
2023/07/13 01:22:25;;;;;;;3.70;1.30;;;20.40;99.90;;;;;;5092914;28;20110;-66
2023/07/13 01:24:51;;;;;;;6.43;1.58;;;20.50;99.90;;;;;;5093261;28;20089;-66
2023/07/13 01:27:20;;;;;;;2.55;1.23;;;20.40;99.90;;;;;;5092717;28;20042;-66
2023/07/13 01:29:47;;;;;;;3.00;1.27;;;20.40;99.90;;;;;;5093262;28;20028;-65
2023/07/13 01:32:23;;;;;;;6.97;1.30;;;20.40;99.90;;;;;;5092955;28;20035;-65
2023/07/13 01:34:50;;;;;;;4.65;1.45;;;20.40;99.90;;;;;;5092867;28;20111;-65
2023/07/13 01:37:16;;;;;;;7.85;1.60;;;20.40;99.90;;;;;;5092609;28;20024;-66
2023/07/13 01:39:42;;;;;;;8.57;1.48;;;20.60;99.90;;;;;;5092665;28;20093;-65
2023/07/13 01:42:07;;;;;;;5.57;1.50;;;20.90;99.90;;;;;;5092373;28;20024;-66
2023/07/13 01:44:33;;;;;;;4.35;1.95;;;21.00;99.90;;;;;;5092735;28;20073;-66
2023/07/13 01:46:59;;;;;;;4.97;1.40;;;21.00;99.90;;;;;;5092608;28;20065;-66
2023/07/13 01:49:25;;;;;;;4.32;1.60;;;21.10;99.90;;;;;;5092545;28;20457;-65
2023/07/13 01:51:50;;;;;;;5.05;1.50;;;21.10;99.90;;;;;;5092600;28;20046;-66
2023/07/13 01:54:16;;;;;;;6.53;1.60;;;21.10;99.90;;;;;;5091103;28;20051;-65
2023/07/13 01:56:42;;;;;;;4.68;1.50;;;21.10;99.90;;;;;;5092016;28;20019;-66
2023/07/13 01:59:09;;;;;;;4.93;1.58;;;21.20;99.90;;;;;;5092585;28;20067;-66
2023/07/13 02:01:35;;;;;;;4.13;1.30;;;21.20;99.90;;;;;;5092414;28;20095;-66
2023/07/13 02:04:00;;;;;;;4.65;1.48;;;21.20;99.90;;;;;;5092278;28;20052;-66
2023/07/13 02:06:26;;;;;;;4.93;1.60;;;21.20;99.90;;;;;;5092270;28;20024;-65
2023/07/13 02:08:52;;;;;;;5.65;1.58;;;21.20;99.90;;;;;;5092241;28;20032;-66
2023/07/13 02:11:17;;;;;;;6.05;1.70;;;21.20;99.90;;;;;;5092073;28;20510;-66
2023/07/13 02:13:43;;;;;;;6.63;1.67;;;21.00;99.90;;;;;;5090488;28;20039;-66
2023/07/13 02:16:09;;;;;;;4.20;1.55;;;20.80;99.90;;;;;;5092457;28;20399;-66
2023/07/13 02:18:34;;;;;;;5.13;1.67;;;20.60;99.90;;;;;;5091907;28;20067;-66
2023/07/13 02:21:00;;;;;;;7.43;1.67;;;20.60;99.90;;;;;;5124685;27;20478;-66
2023/07/13 02:23:26;;;;;;;5.32;1.55;;;20.50;99.90;;;;;;5092017;28;20048;-66
2023/07/13 02:25:59;;;;;;;5.10;1.80;;;20.40;99.90;;;;;;5091536;28;20502;-66
2023/07/13 02:28:25;;;;;;;3.33;1.50;;;20.30;99.90;;;;;;5091842;28;20031;-66
2023/07/13 02:30:51;;;;;;;8.07;1.80;;;20.20;99.90;;;;;;5091737;28;20110;-66
2023/07/13 02:33:16;;;;;;;4.38;1.30;;;20.10;99.90;;;;;;5091843;28;20132;-66
2023/07/13 02:35:42;;;;;;;5.18;1.50;;;20.10;99.90;;;;;;5091802;28;20035;-66
2023/07/13 02:38:08;;;;;;;7.82;1.83;;;20.00;99.90;;;;;;5091874;28;20030;-66
2023/07/13 02:40:35;;;;;;;4.85;1.42;;;20.00;99.90;;;;;;5091374;28;20018;-66
2023/07/13 02:43:01;;;;;;;3.20;1.35;;;19.90;99.90;;;;;;5091578;28;20542;-65
2023/07/13 02:45:27;;;;;;;7.95;1.90;;;19.90;99.90;;;;;;5090677;28;20456;-66
2023/07/13 02:47:53;;;;;;;5.78;1.60;;;19.80;99.90;;;;;;5090902;28;20099;-66
2023/07/13 02:50:19;;;;;;;5.40;1.60;;;19.80;99.90;;;;;;5091267;28;20103;-66
2023/07/13 02:52:45;;;;;;;6.22;1.77;;;19.70;99.90;;;;;;5091164;28;20042;-65
2023/07/13 02:55:10;;;;;;;4.47;1.70;;;19.70;99.90;;;;;;5091504;28;20368;-66
2023/07/13 02:57:36;;;;;;;4.43;1.50;;;19.90;99.90;;;;;;5091292;28;20032;-66
2023/07/13 03:00:05;;;;;;;3.53;1.40;;;20.00;99.90;;;;;;5091398;28;20058;-66
2023/07/13 03:02:32;;;;;;;6.78;1.75;;;20.10;99.90;;;;;;5091305;28;20175;-66
2023/07/13 03:04:58;;;;;;;5.95;1.85;;;20.20;99.90;;;;;;5091607;28;20081;-66
2023/07/13 03:07:25;;;;;;;4.18;1.50;;;20.30;99.90;;;;;;5090847;28;20031;-66
2023/07/13 03:09:55;;;;;;;3.33;1.40;;;20.40;99.90;;;;;;5091397;28;20046;-66
2023/07/13 03:12:21;;;;;;;4.35;1.58;;;20.40;99.90;;;;;;5091154;28;20490;-66
2023/07/13 03:14:47;;;;;;;5.25;1.52;;;20.40;99.90;;;;;;5091220;28;20063;-66
2023/07/13 03:17:12;;;;;;;5.45;1.40;;;20.40;99.90;;;;;;5091293;28;20433;-66
2023/07/13 03:19:38;;;;;;;5.88;1.90;;;20.50;99.90;;;;;;5090924;28;20063;-65
2023/07/13 03:22:04;;;;;;;3.90;1.60;;;20.50;99.90;;;;;;5090819;28;20048;-65
2023/07/13 03:24:30;;;;;;;4.43;1.75;;;20.30;99.90;;;;;;5091031;28;20052;-66
2023/07/13 03:26:55;;;;;;;4.82;1.60;;;20.30;99.90;;;;;;5091044;28;20085;-66
2023/07/13 03:29:21;;;;;;;6.18;1.95;;;20.20;99.90;;;;;;5091480;28;20223;-66
2023/07/13 03:31:47;;;;;;;3.00;1.52;;;19.90;99.90;;;;;;5091195;28;20050;-66
2023/07/13 03:34:12;;;;;;;6.03;2.13;;;19.60;99.90;;;;;;5090932;28;20127;-66
2023/07/13 03:36:38;;;;;;;5.10;2.15;;;19.50;99.90;;;;;;5090808;28;20024;-66
2023/07/13 03:39:08;;;;;;;4.30;2.03;;;19.40;99.90;;;;;;5090947;28;20031;-65
2023/07/13 03:41:33;;;;;;;4.18;1.90;;;19.30;99.90;;;;;;5091057;28;20394;-65
2023/07/13 03:43:59;;;;;;;6.90;2.30;;;19.20;99.90;;;;;;5090937;28;20031;-66
2023/07/13 03:46:25;;;;;;;4.97;1.80;;;19.10;99.90;;;;;;5089775;28;20043;-66
2023/07/13 03:48:51;;;;;;;4.30;1.83;;;19.10;99.90;;;;;;5091028;28;20403;-66
2023/07/13 03:51:17;;;;;;;3.47;1.70;;;19.00;99.90;;;;;;5090449;28;20032;-66
2023/07/13 03:53:45;;;;;;;4.22;1.92;;;18.90;99.90;;;;;;5090816;28;20410;-66
2023/07/13 03:56:10;;;;;;;4.93;1.80;;;18.80;99.90;;;;;;5090917;28;20020;-66
2023/07/13 03:58:38;;;;;;;4.28;1.83;;;18.70;99.90;;;;;;5091170;28;20039;-65
2023/07/13 04:01:06;;;;;;;6.53;2.00;;;18.70;99.90;;;;;;5093940;28;20051;-66
2023/07/13 04:03:33;;;;;;;5.72;1.90;;;18.70;99.90;;;;;;5094470;28;21016;-66
2023/07/13 04:06:00;;;;;;;4.35;2.00;;;18.60;99.90;;;;;;5094310;28;20020;-66
2023/07/13 04:08:31;;;;;;;3.72;1.85;;;18.50;99.90;;;;;;5094758;28;20394;-66
2023/07/13 04:10:58;;;;;;;4.78;1.92;;;18.50;99.90;;;;;;5094682;28;20436;-66
2023/07/13 04:13:24;;;;;;;3.90;1.95;;;18.40;99.90;;;;;;5094238;28;20044;-66
2023/07/13 04:15:51;;;;;;;4.88;2.10;;;18.50;99.90;;;;;;5094551;28;20020;-66
2023/07/13 04:18:17;;;;;;;4.00;1.98;;;18.50;99.90;;;;;;5094127;28;20028;-66
2023/07/13 04:20:42;;;;;;;5.13;1.90;;;18.60;99.90;;;;;;5094097;28;20028;-65
2023/07/13 04:23:08;;;;;;;3.22;1.63;;;18.70;99.90;;;;;;5094061;28;20055;-66
2023/07/13 04:25:34;;;;;;;4.07;2.03;;;18.70;99.90;;;;;;5094584;28;20024;-66
2023/07/13 04:28:00;;;;;;;4.22;2.10;;;18.60;99.90;;;;;;5094023;28;20020;-66
2023/07/13 04:30:26;;;;;;;5.10;1.83;;;18.60;99.90;;;;;;5094075;28;20486;-66
2023/07/13 04:32:52;;;;;;;3.28;1.52;;;18.60;99.90;;;;;;5093977;28;20112;-66
2023/07/13 04:35:20;;;;;;;4.78;1.83;;;18.60;99.90;;;;;;5093890;28;20027;-66
2023/07/13 04:37:49;;;;;;;3.53;1.58;;;18.50;99.90;;;;;;5094074;28;20032;-66
2023/07/13 04:40:18;;;;;;;5.07;1.90;;;18.60;99.90;;;;;;5093839;28;20031;-66
2023/07/13 04:42:45;;;;;;;4.35;1.60;;;18.60;99.90;;;;;;5093816;28;20160;-66
2023/07/13 04:45:12;;;;;;;5.70;2.08;;;18.60;99.90;;;;;;5093859;28;20095;-67
2023/07/13 04:47:37;;;;;;;3.95;1.92;;;18.40;99.90;;;;;;5093830;28;20035;-66
2023/07/13 04:50:04;;;;;;;3.28;1.67;;;18.30;99.90;;;;;;5093610;28;20054;-66
2023/07/13 04:52:30;;;;;;;3.83;1.55;;;18.20;99.90;;;;;;5093357;28;20028;-66
2023/07/13 04:54:55;;;;;;;6.47;1.90;;;18.10;99.90;;;;;;5093980;28;20024;-67
2023/07/13 04:57:21;;;;;;;3.78;1.60;;;18.10;99.90;;;;;;5093852;28;20220;-67
2023/07/13 04:59:47;;;;;;;6.43;2.10;;;18.00;99.90;;;;;;5093361;28;20126;-67
2023/07/13 05:02:12;;;;;;;5.82;1.98;;;18.00;99.90;;;;;;5093457;28;20024;-66
2023/07/13 05:04:38;;;;;;;4.88;1.80;;;17.90;99.90;;;;;;5092971;28;20398;-66
2023/07/13 05:07:06;;;;;;;4.10;1.90;;;17.80;99.90;;;;;;5093872;28;20372;-66
2023/07/13 05:09:31;;;;;;;5.50;1.73;;;17.70;99.90;;;;;;5093582;28;20024;-66
2023/07/13 05:11:57;;;;;;;3.65;1.80;;;17.70;99.90;;;;;;5092693;28;20024;-67
2023/07/13 05:14:23;;;;;;;3.17;1.98;;;17.70;99.90;;;;;;5093345;28;20035;-67
2023/07/13 05:16:48;;;;;;;4.10;2.05;;;17.60;99.90;;;;;;5093239;28;20028;-66
2023/07/13 05:19:14;;;;;;;6.63;2.25;;;17.70;99.90;;;;;;5092775;28;20175;-66
2023/07/13 05:21:41;;;;;;;5.25;1.90;;;17.80;99.90;;;;;;5093409;28;20065;-67
2023/07/13 05:24:06;;;;;;;6.43;2.28;;;17.80;99.90;;;;;;5092855;28;20052;-66
2023/07/13 05:26:32;;;;;;;5.60;2.28;;;17.80;99.90;;;;;;5092972;28;20040;-66
2023/07/13 05:28:58;;;;;;;5.82;2.53;;;17.90;99.90;;;;;;5093104;28;20023;-67
2023/07/13 05:31:24;;;;;;;5.43;2.25;;;18.00;99.90;;;;;;5092738;28;20375;-66
2023/07/13 05:33:49;;;;;;;6.63;2.13;;;18.10;99.90;;;;;;5092518;28;20490;-66
2023/07/13 05:36:15;;;;;;;4.35;2.00;;;18.20;99.90;;;;;;5087184;28;20020;-65
2023/07/13 05:38:41;;;;;;;5.57;2.35;;;18.40;99.90;;;;;;5083197;28;20035;-66
2023/07/13 05:41:06;;;;;;;6.00;2.00;;;18.50;99.90;;;;;;5086301;28;20113;-64
2023/07/13 05:43:32;;;;;;;6.00;1.92;;;18.60;99.90;;;;;;5085545;28;20128;-65
2023/07/13 05:45:58;;;;;;;5.68;1.98;;;19.00;99.90;;;;;;5082490;28;20020;-65
2023/07/13 05:48:24;;;;;;;5.90;1.83;;;19.00;99.90;;;;;;5083440;28;20078;-65
2023/07/13 05:50:50;;;;;;;5.72;2.47;;;19.10;99.90;;;;;;5072460;28;20031;-65
2023/07/13 05:53:15;;;;;;;6.25;1.98;;;19.10;99.90;;;;;;5072082;28;20040;-64
2023/07/13 05:55:53;;;;;;;6.38;2.05;;;19.20;99.90;;;;;;5072195;28;20032;-65
2023/07/13 05:58:19;;;;;;;3.60;1.73;;;19.20;99.90;;;;;;5076294;28;20055;-65
2023/07/13 06:00:48;;;;;;;5.55;1.60;;;19.10;99.90;;;;;;5081035;28;20024;-64
2023/07/13 06:03:15;;;;;;;14.23;2.83;;;19.20;99.90;;;;;;5070551;28;20032;-65
2023/07/13 06:05:41;;;;;;;5.30;1.77;;;19.00;99.90;;;;;;5077937;28;20378;-64
2023/07/13 06:08:07;;;;;;;5.40;1.90;;;18.90;99.90;;;;;;5077268;28;20020;-65
2023/07/13 06:10:34;;;;;;;4.93;1.70;;;18.80;99.90;;;;;;5071647;28;20028;-64
2023/07/13 06:13:00;;;;;;;6.03;1.80;;;18.70;99.90;;;;;;5071754;28;20495;-64
2023/07/13 06:15:26;;;;;;;4.22;1.60;;;18.70;99.90;;;;;;5071792;28;20042;-63
2023/07/13 06:17:52;;;;;;;4.53;2.03;;;18.60;99.90;;;;;;5073303;28;20052;-64
2023/07/13 06:20:17;;;;;;;6.43;2.10;;;18.70;99.90;;;;;;5083390;28;20032;-64
2023/07/13 06:22:43;;;;;;;5.78;2.30;;;18.80;99.90;;;;;;5090950;28;20044;-64
2023/07/13 06:25:09;;;;;;;5.35;2.17;;;18.90;99.90;;;;;;5092284;28;20112;-64
2023/07/13 06:27:35;;;;;;;5.90;2.10;;;19.00;99.90;;;;;;5091725;28;20054;-64
2023/07/13 06:30:00;;;;;;;5.25;2.50;;;19.00;99.90;;;;;;5092671;28;20020;-67
2023/07/13 06:32:26;;;;;;;9.18;3.17;;;19.00;99.90;;;;;;5091760;28;20062;-68
2023/07/13 06:34:52;;;;;;;7.40;2.90;;;19.10;99.90;;;;;;5082293;28;20032;-66
2023/07/13 06:37:18;;;;;;;6.47;2.50;;;19.20;99.90;;;;;;5071695;28;20029;-67
2023/07/13 06:39:43;;;;;;;6.35;3.35;;;19.40;99.90;;;;;;5071407;28;20029;-66
2023/07/13 06:42:09;;;;;;;7.90;3.05;;;19.30;99.90;;;;;;5071295;28;20025;-66
2023/07/13 06:44:35;;;;;;;8.55;2.25;;;19.40;99.90;;;;;;5071242;28;20068;-66
2023/07/13 06:47:00;;;;;;;7.57;2.70;;;19.40;99.90;;;;;;5071224;28;20066;-66
2023/07/13 06:49:26;;;;;;;5.68;2.40;;;19.40;99.90;;;;;;5070629;28;20071;-65
2023/07/13 06:51:52;;;;;;;3.90;2.35;;;19.50;99.90;;;;;;5070552;28;20039;-67
2023/07/13 06:54:18;;;;;;;4.40;2.00;;;19.60;99.90;;;;;;5070915;28;20537;-67
2023/07/13 06:56:43;;;;;;;7.75;2.47;;;19.70;99.90;;;;;;5071163;28;20028;-67
2023/07/13 06:59:09;;;;;;;9.10;2.40;;;19.90;99.90;;;;;;5071170;28;20031;-67
2023/07/13 07:01:35;;;;;;;9.88;2.55;;;20.20;99.90;;;;;;5070891;28;20055;-67
2023/07/13 07:04:00;;;;;;;4.38;1.73;;;20.40;99.90;;;;;;5071318;28;20477;-70
2023/07/13 07:06:26;;;;;;;8.55;2.05;;;20.50;99.90;;;;;;5071020;28;20076;-70
2023/07/13 07:08:52;;;;;;;5.03;1.75;;;20.40;99.90;;;;;;5071056;28;20040;-69
2023/07/13 07:11:25;;;;;;;3.92;1.60;;;20.30;99.90;;;;;;5070809;28;20100;-69
2023/07/13 07:13:53;;;;;;;6.38;1.80;;;20.40;99.90;;;;;;5070692;28;20458;-69
2023/07/13 07:16:19;;;;;;;4.35;1.65;;;20.50;99.90;;;;;;5071635;28;20093;-68
2023/07/13 07:18:46;;;;;;;5.22;1.95;;;20.50;99.90;;;;;;5083551;28;20504;-69
2023/07/13 07:21:12;;;;;;;5.20;1.80;;;20.50;99.90;;;;;;5091532;28;20080;-69
2023/07/13 07:23:38;;;;;;;5.30;1.80;;;20.50;99.90;;;;;;5090999;28;20514;-69
2023/07/13 07:26:04;;;;;;;5.22;1.90;;;20.40;99.90;;;;;;5091233;28;20041;-69
2023/07/13 07:28:30;;;;;;;5.03;1.90;;;20.40;99.90;;;;;;5091473;28;20024;-69
2023/07/13 07:30:57;;;;;;;5.80;1.70;;;20.20;99.90;;;;;;5091558;28;20375;-70
2023/07/13 07:33:24;;;;;;;4.38;2.00;;;20.20;99.90;;;;;;5091553;28;20076;-69
2023/07/13 07:35:50;;;;;;;4.93;1.67;;;20.20;99.90;;;;;;5095590;28;20028;-69
2023/07/13 07:38:16;;;;;;;3.80;1.70;;;20.20;99.90;;;;;;5095686;28;20028;-68
2023/07/13 07:40:42;;;;;;;4.85;1.83;;;20.10;99.90;;;;;;5095176;28;20540;-68
2023/07/13 07:43:10;;;;;;;3.60;1.73;;;20.20;99.90;;;;;;5095190;28;20016;-68
2023/07/13 07:45:37;;;;;;;3.95;1.67;;;20.20;99.90;;;;;;5095374;28;20433;-69
2023/07/13 07:48:04;;;;;;;3.55;1.48;;;20.20;99.90;;;;;;5095677;28;20081;-69
2023/07/13 07:50:30;;;;;;;4.55;1.70;;;20.30;99.90;;;;;;5095051;28;20024;-69
2023/07/13 07:52:56;;;;;;;8.50;1.80;;;20.30;99.90;;;;;;5095074;28;20486;-69
2023/07/13 07:55:22;;;;;;;8.13;1.70;;;20.30;99.90;;;;;;5095151;28;20039;-68
2023/07/13 07:57:48;;;;;;;6.70;1.90;;;20.30;99.90;;;;;;5095232;28;20031;-67
2023/07/13 08:00:15;;;;;;;5.75;1.60;;;20.20;99.90;;;;;;5094926;28;20024;-68
2023/07/13 08:02:41;;;;;;;6.15;1.90;;;20.20;99.90;;;;;;5095117;28;20035;-68
2023/07/13 08:05:10;;;;;;;5.60;1.85;;;20.30;99.90;;;;;;5094765;28;20519;-69
2023/07/13 08:07:37;;;;;;;5.60;1.48;;;20.40;99.90;;;;;;5095322;28;20027;-69
2023/07/13 08:10:03;;;;;;;5.57;1.70;;;20.50;99.90;;;;;;5094793;28;20062;-69
2023/07/13 08:12:29;;;;;;;4.80;1.60;;;20.50;99.90;;;;;;5094610;28;20099;-68
2023/07/13 08:14:57;;;;;;;4.55;1.88;;;20.70;99.90;;;;;;5094518;28;20139;-68
2023/07/13 08:17:23;;;;;;;5.95;1.88;;;20.90;99.90;;;;;;5094348;28;20035;-68
2023/07/13 08:19:50;;;;;;;3.83;1.48;;;21.00;99.90;;;;;;5094885;28;20028;-68
2023/07/13 08:22:15;;;;;;;3.88;1.60;;;21.10;99.90;;;;;;5094439;28;20440;-69
2023/07/13 08:24:44;;;;;;;3.55;1.60;;;21.20;99.90;;;;;;5094580;28;20043;-68
2023/07/13 08:27:14;;;;;;;5.30;1.73;;;21.20;99.90;;;;;;5094600;28;20092;-69
2023/07/13 08:29:39;;;;;;;5.07;1.70;;;21.30;99.90;;;;;;5094293;28;20024;-69
2023/07/13 08:32:10;;;;;;;4.85;1.77;;;21.40;99.90;;;;;;5094557;28;20509;-69
2023/07/13 08:34:36;;;;;;;5.95;1.88;;;21.50;99.90;;;;;;5094199;28;20109;-68
2023/07/13 08:37:02;;;;;;;4.65;1.65;;;21.60;99.90;;;;;;5094359;28;20078;-68
2023/07/13 08:39:30;;;;;;;5.00;1.40;;;21.60;99.90;;;;;;5094038;28;20032;-68
2023/07/13 08:42:12;;;;;;;4.18;1.58;;;21.60;99.90;;;;;;5094170;28;20052;-68
2023/07/13 08:45:11;;;;;;;4.07;1.60;;;21.50;99.90;;;;;;5094493;28;20138;-69
2023/07/13 08:47:43;;;;;;;5.05;1.70;;;21.50;99.90;;;;;;5094506;28;20031;-69
2023/07/13 08:50:16;;;;;;;5.47;1.33;;;21.40;99.90;;;;;;5093793;28;20088;-68
2023/07/13 08:52:43;;;;;;;3.67;1.33;;;21.20;99.90;;;;;;5093535;28;20048;-69
2023/07/13 08:55:24;;;;;;;3.78;1.42;;;21.20;99.90;;;;;;5093939;28;20028;-69
2023/07/13 08:57:56;;;;;;;3.70;1.40;;;21.20;99.90;;;;;;5094274;28;20032;-69
2023/07/13 09:00:24;;;;;;;3.28;1.38;;;21.20;99.90;;;;;;5093727;28;20024;-69
2023/07/13 09:02:57;;;;;;;2.67;1.30;;;21.30;99.90;;;;;;5092436;28;20027;-69
2023/07/13 09:05:35;;;;;;;3.80;1.52;;;21.50;99.90;;;;;;5093657;28;20067;-68
2023/07/13 09:08:12;;;;;;;4.43;1.60;;;21.50;99.90;;;;;;5093810;28;20024;-69
2023/07/13 09:10:43;;;;;;;2.85;1.23;;;21.50;99.90;;;;;;5093361;28;20102;-68
2023/07/13 09:13:26;;;;;;;2.95;1.50;;;21.40;99.90;;;;;;5092295;28;20450;-69
2023/07/13 09:15:52;;;;;;;4.40;1.63;;;21.40;99.90;;;;;;5092581;28;20035;-69
2023/07/13 09:18:35;;;;;;;2.65;1.27;;;21.40;99.90;;;;;;5093344;28;20482;-68
2023/07/13 09:21:03;;;;;;;5.57;1.70;;;21.50;99.90;;;;;;5093196;28;20020;-68
2023/07/13 09:23:30;;;;;;;4.15;1.60;;;21.50;99.90;;;;;;5093090;28;20457;-68
2023/07/13 09:26:12;;;;;;;3.70;1.50;;;21.50;99.90;;;;;;5092892;28;20027;-68
2023/07/13 09:28:46;;;;;;;4.13;1.40;;;21.60;99.90;;;;;;5093239;28;20056;-68
2023/07/13 09:31:23;;;;;;;4.40;1.35;;;21.60;99.90;;;;;;5093400;28;20467;-69
2023/07/13 09:33:50;;;;;;;3.90;1.50;;;21.90;99.90;;;;;;5093108;28;20042;-68
2023/07/13 09:36:31;;;;;;;2.72;1.25;;;22.10;99.90;;;;;;5092983;28;20051;-68
2023/07/13 09:39:03;;;;;;;3.65;1.52;;;22.30;99.90;;;;;;5092791;28;20024;-66
2023/07/13 09:42:07;;;;;;;2.70;1.30;;;22.20;99.90;;;;;;5093807;28;20024;-67
2023/07/13 09:45:02;;;;;;;3.63;1.50;;;22.30;99.90;;;;;;5031004;28;20458;-68
2023/07/13 09:47:32;;;;;;;3.50;1.60;;;22.50;99.90;;;;;;5028453;28;20033;-69
2023/07/13 09:50:14;;;;;;;4.43;1.90;;;22.60;99.90;;;;;;5030160;28;20021;-68
2023/07/13 09:52:46;;;;;;;2.90;1.42;;;22.60;99.90;;;;;;5030000;28;20079;-68
2023/07/13 09:55:29;;;;;;;4.53;1.42;;;22.60;99.90;;;;;;5029156;28;20065;-68
2023/07/13 09:57:55;;;;;;;3.08;1.20;;;22.70;99.90;;;;;;5022684;28;20026;-67
2023/07/13 10:00:27;;;;;;;3.33;1.27;;;22.70;99.90;;;;;;5022011;28;20561;-67
2023/07/13 10:03:04;;;;;;;3.97;1.52;;;22.90;99.90;;;;;;5019702;28;20041;-66
2023/07/13 10:05:43;;;;;;;7.78;1.48;;;22.80;99.90;;;;;;5018386;28;20500;-65
2023/07/13 10:08:18;;;;;;;4.55;1.70;;;22.70;99.90;;;;;;5026373;28;20128;-66
2023/07/13 10:10:44;;;;;;;3.47;1.65;;;22.60;99.90;;;;;;5023787;28;20190;-66
2023/07/13 10:13:37;;;;;;;4.88;2.78;;;22.70;99.90;;;;;;5009716;28;20123;-65
2023/07/13 10:16:06;;;;;;;51.63;33.40;;;22.80;99.90;;;;;;5008196;28;20560;-67
2023/07/13 10:18:49;;;;;;;134.45;55.13;;;22.80;99.90;;;;;;5020354;28;20037;-67
2023/07/13 10:21:19;;;;;;;122.97;74.93;;;22.90;99.90;;;;;;5088601;28;20032;-66
2023/07/13 10:23:50;;;;;;;266.70;185.75;;;22.90;99.90;;;;;;5082860;28;20769;-66
2023/07/13 10:26:21;;;;;;;93.53;73.57;;;23.00;99.90;;;;;;5076315;28;20853;-67
2023/07/13 10:28:55;;;;;;;23.13;17.00;;;23.10;99.90;;;;;;5091706;28;20562;-66
2023/07/13 10:31:21;;;;;;;8.50;4.18;;;23.20;99.90;;;;;;5077638;28;20029;-67
2023/07/13 10:33:47;;;;;;;7.03;4.80;;;23.20;99.90;;;;;;5071347;28;20032;-67
2023/07/13 10:36:22;;;;;;;3.08;1.73;;;23.10;99.90;;;;;;5071144;28;20028;-67
2023/07/13 10:38:51;;;;;;;5.75;2.13;;;23.00;99.90;;;;;;5074094;28;20514;-71
2023/07/13 10:41:22;;;;;;;7.57;1.70;;;23.20;99.90;;;;;;5091395;28;20024;-71
2023/07/13 10:43:51;;;;;;;3.45;1.60;;;23.20;99.90;;;;;;5082648;28;20063;-71
2023/07/13 10:46:20;;;;;;;6.65;2.40;;;23.50;99.90;;;;;;5071511;28;20024;-70
2023/07/13 10:48:50;;;;;;;5.88;1.42;;;23.60;99.90;;;;;;5071072;28;20025;-72
2023/07/13 10:51:21;;;;;;;2.47;1.10;;;23.70;99.90;;;;;;5071053;28;20025;-71
2023/07/13 10:53:47;;;;;;;3.25;1.67;;;23.70;99.90;;;;;;5071422;28;20052;-73
2023/07/13 10:56:27;;;;;;;2.75;1.30;;;23.80;99.90;;;;;;5071088;28;20020;-74
2023/07/13 10:59:07;;;;;;;3.88;1.25;;;23.80;99.90;;;;;;5079214;28;20036;-74
2023/07/13 11:02:01;;;;;;;2.05;1.10;;;23.70;99.90;;;;;;5072073;28;20032;-74
2023/07/13 11:04:38;;;;;;;2.90;1.20;;;23.90;99.90;;;;;;5059087;28;20039;-74
2023/07/13 11:07:21;;;;;;;2.83;1.40;;;24.00;99.90;;;;;;5070804;28;20031;-72
2023/07/13 11:09:51;;;;;;;3.58;1.40;;;23.90;99.90;;;;;;5079939;28;20032;-73
2023/07/13 11:12:19;;;;;;;3.80;1.08;;;24.00;99.90;;;;;;5090734;28;20050;-73
2023/07/13 11:14:54;;;;;;;3.95;1.30;;;24.20;99.90;;;;;;5091106;28;20105;-75
2023/07/13 11:17:41;;;;;;;2.47;1.00;;;24.20;99.90;;;;;;5091233;28;20402;-73
2023/07/13 11:20:09;;;;;;;2.63;1.15;;;24.20;99.90;;;;;;5091238;28;20131;-74
2023/07/13 11:22:49;;;;;;;4.10;1.17;;;24.10;99.90;;;;;;5090458;28;20028;-74
2023/07/13 11:25:21;;;;;;;2.72;1.20;;;23.90;99.90;;;;;;5090991;28;20036;-74
2023/07/13 11:28:11;;;;;;;3.83;1.25;;;23.90;99.90;;;;;;5090388;28;20405;-74
2023/07/13 11:30:57;;;;;;;2.95;1.08;;;23.70;99.90;;;;;;5090817;28;20418;-73
2023/07/13 11:33:36;;;;;;;3.17;1.20;;;23.70;99.90;;;;;;5090553;28;20047;-74
2023/07/13 11:36:06;;;;;;;2.70;1.02;;;23.70;99.90;;;;;;5090503;28;20020;-74
2023/07/13 11:38:39;;;;;;;2.53;1.10;;;23.60;99.90;;;;;;5089684;28;20063;-74
2023/07/13 11:41:18;;;;;;;2.33;1.10;;;23.70;99.90;;;;;;5091225;28;20089;-75
2023/07/13 11:43:44;;;;;;;3.13;1.00;;;23.80;99.90;;;;;;5091221;28;20057;-78
2023/07/13 11:46:15;;;;;;;2.75;0.90;;;23.80;99.90;;;;;;5091741;28;20016;-78
2023/07/13 11:48:42;;;;;;;4.70;1.00;;;24.00;99.90;;;;;;5091193;28;20028;-76
2023/07/13 11:51:17;;;;;;;4.63;1.33;;;24.00;99.90;;;;;;5090958;28;20028;-77
2023/07/13 11:53:47;;;;;;;2.88;1.15;;;23.90;99.90;;;;;;5091147;28;20043;-76
2023/07/13 11:56:13;;;;;;;4.15;1.30;;;24.00;99.90;;;;;;5091133;28;20108;-76
2023/07/13 11:58:39;;;;;;;3.42;1.30;;;24.00;99.90;;;;;;5092083;28;20107;-77
2023/07/13 12:01:05;;;;;;;1.92;1.20;;;23.80;99.90;;;;;;5089847;28;20020;-76
2023/07/13 12:03:32;;;;;;;3.40;1.40;;;23.80;99.90;;;;;;5091416;28;20024;-76
2023/07/13 12:06:01;;;;;;;2.63;1.00;;;23.90;99.90;;;;;;5090846;28;20555;-76
2023/07/13 12:08:27;;;;;;;2.63;1.10;;;23.90;99.90;;;;;;5091611;28;20039;-75
2023/07/13 12:11:04;;;;;;;3.38;1.20;;;24.10;99.90;;;;;;5090159;28;20111;-76
2023/07/13 12:13:36;;;;;;;3.60;1.27;;;24.20;99.90;;;;;;5090931;28;20551;-76
2023/07/13 12:16:02;;;;;;;2.97;1.30;;;24.50;99.90;;;;;;5071377;28;20029;-76
2023/07/13 12:18:33;;;;;;;4.07;1.20;;;24.50;99.90;;;;;;5062884;28;20047;-75
2023/07/13 12:20:59;;;;;;;2.95;1.10;;;24.50;99.90;;;;;;5092243;28;20478;-76
2023/07/13 12:23:27;;;;;;;4.13;1.20;;;24.60;99.90;;;;;;5094722;28;20528;-76
2023/07/13 12:25:54;;;;;;;4.35;1.52;;;24.60;99.90;;;;;;5094740;28;20056;-76
2023/07/13 12:28:22;;;;;;;5.00;1.38;;;24.50;99.90;;;;;;5094566;28;20032;-76
2023/07/13 12:30:49;;;;;;;4.03;1.20;;;24.40;99.90;;;;;;5094442;28;20043;-75
2023/07/13 12:33:16;;;;;;;2.80;1.25;;;24.30;99.90;;;;;;5094591;28;20032;-75
2023/07/13 12:35:47;;;;;;;3.65;1.30;;;24.20;99.90;;;;;;5094938;28;20529;-76
2023/07/13 12:38:13;;;;;;;3.22;1.15;;;24.20;99.90;;;;;;5094227;28;20023;-75
2023/07/13 12:40:40;;;;;;;4.32;1.50;;;24.10;99.90;;;;;;5094217;28;20030;-76
2023/07/13 12:43:14;;;;;;;3.05;1.30;;;24.10;99.90;;;;;;5094593;28;20023;-76
2023/07/13 12:45:58;;;;;;;2.95;1.10;;;24.10;99.90;;;;;;5094595;28;20028;-76
2023/07/13 12:48:25;;;;;;;3.22;1.30;;;23.80;99.90;;;;;;5094216;28;20062;-77
2023/07/13 12:50:54;;;;;;;2.38;1.20;;;23.70;99.90;;;;;;5093998;28;20028;-77
2023/07/13 12:53:23;;;;;;;5.75;1.20;;;23.70;99.90;;;;;;5094680;28;20478;-76